sensor_id;sensor_type;location;lat;lon;timestamp;P1;durP1;ratioP1;P2;durP2;ratioP2
5890;SDS011;2971;52.420;7.080;2023-06-19T00:01:05;9.50;;;8.47;;
5890;SDS011;2971;52.420;7.080;2023-06-19T00:03:31;9.77;;;8.77;;
5890;SDS011;2971;52.420;7.080;2023-06-19T00:05:56;10.70;;;8.87;;
5890;SDS011;2971;52.420;7.080;2023-06-19T00:08:22;9.63;;;8.67;;
5890;SDS011;2971;52.420;7.080;2023-06-19T00:10:47;9.80;;;8.80;;
5890;SDS011;2971;52.420;7.080;2023-06-19T00:13:13;10.63;;;8.30;;
5890;SDS011;2971;52.420;7.080;2023-06-19T00:15:38;9.97;;;8.30;;
5890;SDS011;2971;52.420;7.080;2023-06-19T00:18:04;9.53;;;8.53;;
5890;SDS011;2971;52.420;7.080;2023-06-19T00:20:31;9.50;;;8.60;;
5890;SDS011;2971;52.420;7.080;2023-06-19T00:22:57;9.63;;;8.73;;
5890;SDS011;2971;52.420;7.080;2023-06-19T00:25:23;10.10;;;9.00;;
5890;SDS011;2971;52.420;7.080;2023-06-19T00:27:48;9.77;;;8.77;;
5890;SDS011;2971;52.420;7.080;2023-06-19T00:30:14;9.87;;;8.87;;
5890;SDS011;2971;52.420;7.080;2023-06-19T00:32:40;10.80;;;8.80;;
5890;SDS011;2971;52.420;7.080;2023-06-19T00:35:14;10.37;;;8.93;;
5890;SDS011;2971;52.420;7.080;2023-06-19T00:37:41;9.87;;;8.93;;
5890;SDS011;2971;52.420;7.080;2023-06-19T00:40:15;9.87;;;8.97;;
5890;SDS011;2971;52.420;7.080;2023-06-19T00:42:44;9.50;;;8.60;;
5890;SDS011;2971;52.420;7.080;2023-06-19T00:45:10;9.30;;;8.40;;
5890;SDS011;2971;52.420;7.080;2023-06-19T00:47:36;9.50;;;8.60;;
5890;SDS011;2971;52.420;7.080;2023-06-19T00:50:01;9.40;;;8.50;;
5890;SDS011;2971;52.420;7.080;2023-06-19T00:52:26;8.93;;;8.13;;
5890;SDS011;2971;52.420;7.080;2023-06-19T00:54:53;10.57;;;9.00;;
5890;SDS011;2971;52.420;7.080;2023-06-19T00:57:19;10.13;;;8.83;;
5890;SDS011;2971;52.420;7.080;2023-06-19T00:59:44;9.23;;;8.33;;
5890;SDS011;2971;52.420;7.080;2023-06-19T01:02:10;10.03;;;9.00;;
5890;SDS011;2971;52.420;7.080;2023-06-19T01:04:36;9.20;;;8.37;;
5890;SDS011;2971;52.420;7.080;2023-06-19T01:07:05;10.17;;;8.90;;
5890;SDS011;2971;52.420;7.080;2023-06-19T01:09:40;10.00;;;8.40;;
5890;SDS011;2971;52.420;7.080;2023-06-19T01:12:14;9.93;;;8.93;;
5890;SDS011;2971;52.420;7.080;2023-06-19T01:14:46;9.80;;;8.80;;
5890;SDS011;2971;52.420;7.080;2023-06-19T01:17:28;9.77;;;8.83;;
5890;SDS011;2971;52.420;7.080;2023-06-19T01:19:54;9.90;;;8.37;;
5890;SDS011;2971;52.420;7.080;2023-06-19T01:22:27;10.03;;;9.00;;
5890;SDS011;2971;52.420;7.080;2023-06-19T01:24:53;9.77;;;8.63;;
5890;SDS011;2971;52.420;7.080;2023-06-19T01:27:18;9.47;;;8.47;;
5890;SDS011;2971;52.420;7.080;2023-06-19T01:29:44;9.70;;;8.70;;
5890;SDS011;2971;52.420;7.080;2023-06-19T01:32:13;9.60;;;8.60;;
5890;SDS011;2971;52.420;7.080;2023-06-19T01:34:42;11.13;;;9.57;;
5890;SDS011;2971;52.420;7.080;2023-06-19T01:37:07;9.60;;;8.60;;
5890;SDS011;2971;52.420;7.080;2023-06-19T01:39:34;9.67;;;8.77;;
5890;SDS011;2971;52.420;7.080;2023-06-19T01:42:01;11.23;;;8.37;;
5890;SDS011;2971;52.420;7.080;2023-06-19T01:44:26;10.13;;;8.80;;
5890;SDS011;2971;52.420;7.080;2023-06-19T01:46:52;9.87;;;8.87;;
5890;SDS011;2971;52.420;7.080;2023-06-19T01:49:18;9.37;;;8.47;;
5890;SDS011;2971;52.420;7.080;2023-06-19T01:51:43;9.63;;;8.73;;
5890;SDS011;2971;52.420;7.080;2023-06-19T01:54:08;10.07;;;8.53;;
5890;SDS011;2971;52.420;7.080;2023-06-19T01:56:34;10.17;;;8.47;;
5890;SDS011;2971;52.420;7.080;2023-06-19T01:59:00;10.10;;;9.10;;
5890;SDS011;2971;52.420;7.080;2023-06-19T02:01:27;11.67;;;8.60;;
5890;SDS011;2971;52.420;7.080;2023-06-19T02:03:52;9.50;;;8.50;;
5890;SDS011;2971;52.420;7.080;2023-06-19T02:06:18;9.77;;;8.47;;
5890;SDS011;2971;52.420;7.080;2023-06-19T02:08:43;9.03;;;8.10;;
5890;SDS011;2971;52.420;7.080;2023-06-19T02:11:09;9.87;;;8.67;;
5890;SDS011;2971;52.420;7.080;2023-06-19T02:13:34;9.53;;;8.53;;
5890;SDS011;2971;52.420;7.080;2023-06-19T02:15:59;9.37;;;8.00;;
5890;SDS011;2971;52.420;7.080;2023-06-19T02:18:25;9.00;;;7.90;;
5890;SDS011;2971;52.420;7.080;2023-06-19T02:20:50;8.63;;;7.70;;
5890;SDS011;2971;52.420;7.080;2023-06-19T02:23:16;8.67;;;7.67;;
5890;SDS011;2971;52.420;7.080;2023-06-19T02:25:41;8.83;;;7.80;;
5890;SDS011;2971;52.420;7.080;2023-06-19T02:28:07;9.07;;;7.67;;
5890;SDS011;2971;52.420;7.080;2023-06-19T02:30:32;8.47;;;7.30;;
5890;SDS011;2971;52.420;7.080;2023-06-19T02:32:57;8.03;;;7.30;;
5890;SDS011;2971;52.420;7.080;2023-06-19T02:35:23;8.93;;;7.67;;
5890;SDS011;2971;52.420;7.080;2023-06-19T02:37:48;8.73;;;7.83;;
5890;SDS011;2971;52.420;7.080;2023-06-19T02:40:14;8.57;;;7.77;;
5890;SDS011;2971;52.420;7.080;2023-06-19T02:42:39;10.00;;;8.30;;
5890;SDS011;2971;52.420;7.080;2023-06-19T02:45:05;8.70;;;7.80;;
5890;SDS011;2971;52.420;7.080;2023-06-19T02:47:32;8.90;;;8.03;;
5890;SDS011;2971;52.420;7.080;2023-06-19T02:49:58;9.17;;;8.23;;
5890;SDS011;2971;52.420;7.080;2023-06-19T02:52:24;8.87;;;7.93;;
5890;SDS011;2971;52.420;7.080;2023-06-19T02:54:49;8.40;;;7.60;;
5890;SDS011;2971;52.420;7.080;2023-06-19T02:57:15;8.97;;;8.10;;
5890;SDS011;2971;52.420;7.080;2023-06-19T02:59:40;9.00;;;8.20;;
5890;SDS011;2971;52.420;7.080;2023-06-19T03:02:05;8.90;;;7.77;;
5890;SDS011;2971;52.420;7.080;2023-06-19T03:04:31;8.50;;;7.80;;
5890;SDS011;2971;52.420;7.080;2023-06-19T03:06:56;8.23;;;7.43;;
5890;SDS011;2971;52.420;7.080;2023-06-19T03:09:22;9.33;;;7.43;;
5890;SDS011;2971;52.420;7.080;2023-06-19T03:11:47;8.23;;;7.53;;
5890;SDS011;2971;52.420;7.080;2023-06-19T03:14:12;8.17;;;7.23;;
5890;SDS011;2971;52.420;7.080;2023-06-19T03:16:38;8.83;;;7.63;;
5890;SDS011;2971;52.420;7.080;2023-06-19T03:19:03;8.60;;;7.80;;
5890;SDS011;2971;52.420;7.080;2023-06-19T03:21:29;8.00;;;7.20;;
5890;SDS011;2971;52.420;7.080;2023-06-19T03:23:54;7.67;;;7.00;;
5890;SDS011;2971;52.420;7.080;2023-06-19T03:26:20;7.17;;;6.57;;
5890;SDS011;2971;52.420;7.080;2023-06-19T03:28:45;7.47;;;6.53;;
5890;SDS011;2971;52.420;7.080;2023-06-19T03:31:14;9.77;;;6.83;;
5890;SDS011;2971;52.420;7.080;2023-06-19T03:33:40;8.60;;;6.33;;
5890;SDS011;2971;52.420;7.080;2023-06-19T03:36:05;7.43;;;6.37;;
5890;SDS011;2971;52.420;7.080;2023-06-19T03:38:31;10.37;;;6.57;;
5890;SDS011;2971;52.420;7.080;2023-06-19T03:40:56;6.73;;;6.00;;
5890;SDS011;2971;52.420;7.080;2023-06-19T03:43:21;7.93;;;6.60;;
5890;SDS011;2971;52.420;7.080;2023-06-19T03:45:47;9.03;;;6.50;;
5890;SDS011;2971;52.420;7.080;2023-06-19T03:48:12;6.60;;;5.93;;
5890;SDS011;2971;52.420;7.080;2023-06-19T03:50:38;7.17;;;6.20;;
5890;SDS011;2971;52.420;7.080;2023-06-19T03:53:03;7.20;;;6.30;;
5890;SDS011;2971;52.420;7.080;2023-06-19T03:55:29;7.03;;;6.20;;
5890;SDS011;2971;52.420;7.080;2023-06-19T03:57:55;6.80;;;5.97;;
5890;SDS011;2971;52.420;7.080;2023-06-19T04:00:20;6.73;;;6.13;;
5890;SDS011;2971;52.420;7.080;2023-06-19T04:02:46;7.83;;;6.13;;
5890;SDS011;2971;52.420;7.080;2023-06-19T04:05:12;6.80;;;6.00;;
5890;SDS011;2971;52.420;7.080;2023-06-19T04:07:38;7.83;;;5.80;;
5890;SDS011;2971;52.420;7.080;2023-06-19T04:10:03;6.90;;;6.07;;
5890;SDS011;2971;52.420;7.080;2023-06-19T04:12:29;6.87;;;5.93;;
5890;SDS011;2971;52.420;7.080;2023-06-19T04:14:54;6.60;;;5.90;;
5890;SDS011;2971;52.420;7.080;2023-06-19T04:17:20;10.33;;;6.50;;
5890;SDS011;2971;52.420;7.080;2023-06-19T04:19:46;6.80;;;6.10;;
5890;SDS011;2971;52.420;7.080;2023-06-19T04:22:11;7.50;;;6.10;;
5890;SDS011;2971;52.420;7.080;2023-06-19T04:24:36;6.57;;;5.80;;
5890;SDS011;2971;52.420;7.080;2023-06-19T04:27:02;7.30;;;6.27;;
5890;SDS011;2971;52.420;7.080;2023-06-19T04:29:27;6.33;;;5.57;;
5890;SDS011;2971;52.420;7.080;2023-06-19T04:31:59;6.47;;;5.80;;
5890;SDS011;2971;52.420;7.080;2023-06-19T04:34:25;11.67;;;6.27;;
5890;SDS011;2971;52.420;7.080;2023-06-19T04:36:51;7.17;;;6.47;;
5890;SDS011;2971;52.420;7.080;2023-06-19T04:39:18;6.90;;;5.90;;
5890;SDS011;2971;52.420;7.080;2023-06-19T04:41:44;7.17;;;6.23;;
5890;SDS011;2971;52.420;7.080;2023-06-19T04:44:09;6.43;;;5.77;;
5890;SDS011;2971;52.420;7.080;2023-06-19T04:46:37;7.00;;;6.30;;
5890;SDS011;2971;52.420;7.080;2023-06-19T04:49:02;6.63;;;5.90;;
5890;SDS011;2971;52.420;7.080;2023-06-19T04:51:29;7.83;;;6.17;;
5890;SDS011;2971;52.420;7.080;2023-06-19T04:53:55;7.17;;;6.43;;
5890;SDS011;2971;52.420;7.080;2023-06-19T04:56:20;10.47;;;6.50;;
5890;SDS011;2971;52.420;7.080;2023-06-19T04:58:46;6.70;;;6.00;;
5890;SDS011;2971;52.420;7.080;2023-06-19T05:01:15;7.20;;;6.17;;
5890;SDS011;2971;52.420;7.080;2023-06-19T05:03:42;7.40;;;6.47;;
5890;SDS011;2971;52.420;7.080;2023-06-19T05:06:09;6.20;;;5.60;;
5890;SDS011;2971;52.420;7.080;2023-06-19T05:08:34;7.17;;;6.47;;
5890;SDS011;2971;52.420;7.080;2023-06-19T05:11:00;6.60;;;6.00;;
5890;SDS011;2971;52.420;7.080;2023-06-19T05:13:25;7.57;;;6.77;;
5890;SDS011;2971;52.420;7.080;2023-06-19T05:15:51;7.03;;;6.27;;
5890;SDS011;2971;52.420;7.080;2023-06-19T05:18:16;10.50;;;7.13;;
5890;SDS011;2971;52.420;7.080;2023-06-19T05:20:42;8.37;;;6.20;;
5890;SDS011;2971;52.420;7.080;2023-06-19T05:23:08;7.83;;;7.00;;
5890;SDS011;2971;52.420;7.080;2023-06-19T05:25:34;7.50;;;6.80;;
5890;SDS011;2971;52.420;7.080;2023-06-19T05:27:59;6.93;;;6.23;;
5890;SDS011;2971;52.420;7.080;2023-06-19T05:30:25;9.23;;;6.40;;
5890;SDS011;2971;52.420;7.080;2023-06-19T05:32:50;6.70;;;6.10;;
5890;SDS011;2971;52.420;7.080;2023-06-19T05:35:15;7.60;;;6.50;;
5890;SDS011;2971;52.420;7.080;2023-06-19T05:37:41;6.60;;;6.00;;
5890;SDS011;2971;52.420;7.080;2023-06-19T05:40:08;6.50;;;5.90;;
5890;SDS011;2971;52.420;7.080;2023-06-19T05:42:35;6.50;;;5.90;;
5890;SDS011;2971;52.420;7.080;2023-06-19T05:45:00;6.70;;;6.00;;
5890;SDS011;2971;52.420;7.080;2023-06-19T05:47:27;7.33;;;5.50;;
5890;SDS011;2971;52.420;7.080;2023-06-19T05:49:53;6.70;;;6.10;;
5890;SDS011;2971;52.420;7.080;2023-06-19T05:52:19;7.10;;;6.50;;
5890;SDS011;2971;52.420;7.080;2023-06-19T05:54:45;6.43;;;5.83;;
5890;SDS011;2971;52.420;7.080;2023-06-19T05:57:10;6.17;;;5.57;;
5890;SDS011;2971;52.420;7.080;2023-06-19T05:59:36;7.40;;;5.57;;
5890;SDS011;2971;52.420;7.080;2023-06-19T06:02:02;6.10;;;5.50;;
5890;SDS011;2971;52.420;7.080;2023-06-19T06:04:28;6.13;;;5.53;;
5890;SDS011;2971;52.420;7.080;2023-06-19T06:06:53;6.47;;;4.80;;
5890;SDS011;2971;52.420;7.080;2023-06-19T06:09:19;5.80;;;5.27;;
5890;SDS011;2971;52.420;7.080;2023-06-19T06:11:45;5.10;;;4.60;;
5890;SDS011;2971;52.420;7.080;2023-06-19T06:14:10;5.10;;;4.60;;
5890;SDS011;2971;52.420;7.080;2023-06-19T06:16:36;7.77;;;4.10;;
5890;SDS011;2971;52.420;7.080;2023-06-19T06:19:01;5.23;;;4.73;;
5890;SDS011;2971;52.420;7.080;2023-06-19T06:21:27;4.43;;;4.03;;
5890;SDS011;2971;52.420;7.080;2023-06-19T06:23:52;5.57;;;4.87;;
5890;SDS011;2971;52.420;7.080;2023-06-19T06:26:19;5.93;;;4.77;;
5890;SDS011;2971;52.420;7.080;2023-06-19T06:28:44;4.97;;;4.47;;
5890;SDS011;2971;52.420;7.080;2023-06-19T06:31:10;6.23;;;4.90;;
5890;SDS011;2971;52.420;7.080;2023-06-19T06:33:36;5.40;;;4.90;;
5890;SDS011;2971;52.420;7.080;2023-06-19T06:36:01;5.20;;;4.70;;
5890;SDS011;2971;52.420;7.080;2023-06-19T06:38:27;4.90;;;4.40;;
5890;SDS011;2971;52.420;7.080;2023-06-19T06:40:52;7.20;;;4.87;;
5890;SDS011;2971;52.420;7.080;2023-06-19T06:43:18;6.90;;;4.83;;
5890;SDS011;2971;52.420;7.080;2023-06-19T06:45:43;5.70;;;5.10;;
5890;SDS011;2971;52.420;7.080;2023-06-19T06:48:09;6.60;;;5.20;;
5890;SDS011;2971;52.420;7.080;2023-06-19T06:50:34;7.17;;;4.97;;
5890;SDS011;2971;52.420;7.080;2023-06-19T06:53:00;5.37;;;4.87;;
5890;SDS011;2971;52.420;7.080;2023-06-19T06:55:26;6.10;;;5.03;;
5890;SDS011;2971;52.420;7.080;2023-06-19T06:57:51;6.53;;;5.70;;
5890;SDS011;2971;52.420;7.080;2023-06-19T07:00:16;6.83;;;5.30;;
5890;SDS011;2971;52.420;7.080;2023-06-19T07:02:43;8.63;;;5.07;;
5890;SDS011;2971;52.420;7.080;2023-06-19T07:05:09;5.67;;;5.10;;
5890;SDS011;2971;52.420;7.080;2023-06-19T07:07:35;5.00;;;4.50;;
5890;SDS011;2971;52.420;7.080;2023-06-19T07:10:00;6.00;;;5.40;;
5890;SDS011;2971;52.420;7.080;2023-06-19T07:12:26;5.53;;;5.03;;
5890;SDS011;2971;52.420;7.080;2023-06-19T07:14:54;8.83;;;5.13;;
5890;SDS011;2971;52.420;7.080;2023-06-19T07:17:20;6.40;;;5.40;;
5890;SDS011;2971;52.420;7.080;2023-06-19T07:19:46;6.87;;;5.40;;
5890;SDS011;2971;52.420;7.080;2023-06-19T07:22:11;7.47;;;5.40;;
5890;SDS011;2971;52.420;7.080;2023-06-19T07:24:37;5.63;;;5.03;;
5890;SDS011;2971;52.420;7.080;2023-06-19T07:27:02;6.63;;;5.77;;
5890;SDS011;2971;52.420;7.080;2023-06-19T07:29:29;8.63;;;5.80;;
5890;SDS011;2971;52.420;7.080;2023-06-19T07:31:54;6.80;;;6.10;;
5890;SDS011;2971;52.420;7.080;2023-06-19T07:34:20;6.93;;;6.10;;
5890;SDS011;2971;52.420;7.080;2023-06-19T07:36:46;6.27;;;5.40;;
5890;SDS011;2971;52.420;7.080;2023-06-19T07:39:12;7.50;;;6.73;;
5890;SDS011;2971;52.420;7.080;2023-06-19T07:41:37;6.40;;;5.80;;
5890;SDS011;2971;52.420;7.080;2023-06-19T07:44:03;8.83;;;6.20;;
5890;SDS011;2971;52.420;7.080;2023-06-19T07:46:28;8.57;;;5.70;;
5890;SDS011;2971;52.420;7.080;2023-06-19T07:48:54;11.40;;;6.83;;
5890;SDS011;2971;52.420;7.080;2023-06-19T07:51:20;7.50;;;6.30;;
5890;SDS011;2971;52.420;7.080;2023-06-19T07:53:45;9.77;;;6.53;;
5890;SDS011;2971;52.420;7.080;2023-06-19T07:56:11;8.50;;;6.60;;
5890;SDS011;2971;52.420;7.080;2023-06-19T07:58:36;6.60;;;5.90;;
5890;SDS011;2971;52.420;7.080;2023-06-19T08:01:01;6.50;;;5.90;;
5890;SDS011;2971;52.420;7.080;2023-06-19T08:03:27;6.77;;;5.50;;
5890;SDS011;2971;52.420;7.080;2023-06-19T08:05:53;7.87;;;6.03;;
5890;SDS011;2971;52.420;7.080;2023-06-19T08:08:18;6.93;;;6.23;;
5890;SDS011;2971;52.420;7.080;2023-06-19T08:10:43;10.23;;;5.70;;
5890;SDS011;2971;52.420;7.080;2023-06-19T08:13:09;6.67;;;5.97;;
5890;SDS011;2971;52.420;7.080;2023-06-19T08:15:37;6.33;;;5.20;;
5890;SDS011;2971;52.420;7.080;2023-06-19T08:18:05;7.50;;;6.07;;
5890;SDS011;2971;52.420;7.080;2023-06-19T08:20:30;7.43;;;5.87;;
5890;SDS011;2971;52.420;7.080;2023-06-19T08:22:56;6.73;;;5.50;;
5890;SDS011;2971;52.420;7.080;2023-06-19T08:25:21;9.60;;;6.60;;
5890;SDS011;2971;52.420;7.080;2023-06-19T08:27:47;7.27;;;6.47;;
5890;SDS011;2971;52.420;7.080;2023-06-19T08:30:13;7.23;;;6.27;;
5890;SDS011;2971;52.420;7.080;2023-06-19T08:32:38;7.03;;;6.33;;
5890;SDS011;2971;52.420;7.080;2023-06-19T08:35:04;8.57;;;6.30;;
5890;SDS011;2971;52.420;7.080;2023-06-19T08:37:29;7.40;;;5.50;;
5890;SDS011;2971;52.420;7.080;2023-06-19T08:39:55;6.87;;;6.17;;
5890;SDS011;2971;52.420;7.080;2023-06-19T08:42:21;7.43;;;6.37;;
5890;SDS011;2971;52.420;7.080;2023-06-19T08:44:48;6.93;;;6.07;;
5890;SDS011;2971;52.420;7.080;2023-06-19T08:47:14;10.67;;;6.63;;
5890;SDS011;2971;52.420;7.080;2023-06-19T08:49:39;7.80;;;6.70;;
5890;SDS011;2971;52.420;7.080;2023-06-19T08:52:05;7.97;;;5.90;;
5890;SDS011;2971;52.420;7.080;2023-06-19T08:54:31;7.10;;;6.50;;
5890;SDS011;2971;52.420;7.080;2023-06-19T08:57:00;8.07;;;7.23;;
5890;SDS011;2971;52.420;7.080;2023-06-19T08:59:26;9.70;;;7.33;;
5890;SDS011;2971;52.420;7.080;2023-06-19T09:01:54;8.30;;;7.17;;
5890;SDS011;2971;52.420;7.080;2023-06-19T09:04:21;9.30;;;7.80;;
5890;SDS011;2971;52.420;7.080;2023-06-19T09:06:52;9.17;;;8.17;;
5890;SDS011;2971;52.420;7.080;2023-06-19T09:09:22;7.50;;;6.70;;
5890;SDS011;2971;52.420;7.080;2023-06-19T09:12:04;8.70;;;7.80;;
5890;SDS011;2971;52.420;7.080;2023-06-19T09:14:37;8.50;;;7.60;;
5890;SDS011;2971;52.420;7.080;2023-06-19T09:17:04;11.03;;;7.90;;
5890;SDS011;2971;52.420;7.080;2023-06-19T09:19:30;8.07;;;7.37;;
5890;SDS011;2971;52.420;7.080;2023-06-19T09:22:07;10.77;;;7.13;;
5890;SDS011;2971;52.420;7.080;2023-06-19T09:24:34;8.57;;;7.50;;
5890;SDS011;2971;52.420;7.080;2023-06-19T09:27:13;8.20;;;7.40;;
5890;SDS011;2971;52.420;7.080;2023-06-19T09:29:42;8.97;;;7.30;;
5890;SDS011;2971;52.420;7.080;2023-06-19T09:32:15;10.10;;;7.60;;
5890;SDS011;2971;52.420;7.080;2023-06-19T09:34:43;8.40;;;7.03;;
5890;SDS011;2971;52.420;7.080;2023-06-19T09:37:09;8.03;;;7.07;;
5890;SDS011;2971;52.420;7.080;2023-06-19T09:39:36;8.70;;;7.30;;
5890;SDS011;2971;52.420;7.080;2023-06-19T09:42:02;8.67;;;7.87;;
5890;SDS011;2971;52.420;7.080;2023-06-19T09:44:30;10.73;;;7.30;;
5890;SDS011;2971;52.420;7.080;2023-06-19T09:46:57;8.50;;;7.60;;
5890;SDS011;2971;52.420;7.080;2023-06-19T09:49:24;10.70;;;8.00;;
5890;SDS011;2971;52.420;7.080;2023-06-19T09:51:53;9.10;;;8.20;;
5890;SDS011;2971;52.420;7.080;2023-06-19T09:54:19;9.70;;;8.70;;
5890;SDS011;2971;52.420;7.080;2023-06-19T09:56:46;9.43;;;8.30;;
5890;SDS011;2971;52.420;7.080;2023-06-19T09:59:16;10.77;;;9.47;;
5890;SDS011;2971;52.420;7.080;2023-06-19T10:01:43;10.63;;;8.60;;
5890;SDS011;2971;52.420;7.080;2023-06-19T10:04:10;10.23;;;8.30;;
5890;SDS011;2971;52.420;7.080;2023-06-19T10:06:44;8.37;;;7.57;;
5890;SDS011;2971;52.420;7.080;2023-06-19T10:09:11;12.63;;;9.27;;
5890;SDS011;2971;52.420;7.080;2023-06-19T10:11:49;10.33;;;8.10;;
5890;SDS011;2971;52.420;7.080;2023-06-19T10:14:20;9.77;;;7.77;;
5890;SDS011;2971;52.420;7.080;2023-06-19T10:16:46;11.60;;;7.80;;
5890;SDS011;2971;52.420;7.080;2023-06-19T10:19:13;7.47;;;6.77;;
5890;SDS011;2971;52.420;7.080;2023-06-19T10:21:49;9.23;;;8.33;;
5890;SDS011;2971;52.420;7.080;2023-06-19T10:24:16;8.90;;;7.97;;
5890;SDS011;2971;52.420;7.080;2023-06-19T10:26:54;8.77;;;7.87;;
5890;SDS011;2971;52.420;7.080;2023-06-19T10:29:21;8.80;;;7.77;;
5890;SDS011;2971;52.420;7.080;2023-06-19T10:31:47;6.40;;;5.80;;
5890;SDS011;2971;52.420;7.080;2023-06-19T10:34:12;6.83;;;6.10;;
5890;SDS011;2971;52.420;7.080;2023-06-19T10:36:38;7.53;;;6.70;;
5890;SDS011;2971;52.420;7.080;2023-06-19T10:39:03;11.10;;;7.10;;
5890;SDS011;2971;52.420;7.080;2023-06-19T10:41:29;8.63;;;7.80;;
5890;SDS011;2971;52.420;7.080;2023-06-19T10:44:01;8.00;;;7.20;;
5890;SDS011;2971;52.420;7.080;2023-06-19T10:46:34;8.27;;;7.13;;
5890;SDS011;2971;52.420;7.080;2023-06-19T10:49:00;10.83;;;7.63;;
5890;SDS011;2971;52.420;7.080;2023-06-19T10:51:29;11.00;;;7.70;;
5890;SDS011;2971;52.420;7.080;2023-06-19T10:54:03;8.17;;;7.37;;
5890;SDS011;2971;52.420;7.080;2023-06-19T10:56:29;7.67;;;7.00;;
5890;SDS011;2971;52.420;7.080;2023-06-19T10:59:01;8.80;;;7.90;;
5890;SDS011;2971;52.420;7.080;2023-06-19T11:01:35;9.63;;;8.30;;
5890;SDS011;2971;52.420;7.080;2023-06-19T11:04:02;8.77;;;7.97;;
5890;SDS011;2971;52.420;7.080;2023-06-19T11:06:29;8.60;;;7.63;;
5890;SDS011;2971;52.420;7.080;2023-06-19T11:08:54;9.97;;;8.40;;
5890;SDS011;2971;52.420;7.080;2023-06-19T11:11:20;7.80;;;6.33;;
5890;SDS011;2971;52.420;7.080;2023-06-19T11:13:45;8.60;;;7.53;;
5890;SDS011;2971;52.420;7.080;2023-06-19T11:16:11;8.60;;;7.30;;
5890;SDS011;2971;52.420;7.080;2023-06-19T11:18:36;10.33;;;6.80;;
5890;SDS011;2971;52.420;7.080;2023-06-19T11:21:01;7.33;;;6.10;;
5890;SDS011;2971;52.420;7.080;2023-06-19T11:23:30;8.33;;;7.53;;
5890;SDS011;2971;52.420;7.080;2023-06-19T11:26:05;7.57;;;6.87;;
5890;SDS011;2971;52.420;7.080;2023-06-19T11:28:31;8.87;;;7.63;;
5890;SDS011;2971;52.420;7.080;2023-06-19T11:30:57;7.60;;;6.90;;
5890;SDS011;2971;52.420;7.080;2023-06-19T11:33:24;7.03;;;6.33;;
5890;SDS011;2971;52.420;7.080;2023-06-19T11:35:53;9.67;;;7.83;;
5890;SDS011;2971;52.420;7.080;2023-06-19T11:38:20;7.10;;;6.15;;
5890;SDS011;2971;52.420;7.080;2023-06-19T11:40:50;9.55;;;8.00;;
5890;SDS011;2971;52.420;7.080;2023-06-19T11:43:25;11.23;;;8.45;;
5890;SDS011;2971;52.420;7.080;2023-06-19T11:45:52;9.63;;;8.68;;
5890;SDS011;2971;52.420;7.080;2023-06-19T11:48:21;8.10;;;7.30;;
5890;SDS011;2971;52.420;7.080;2023-06-19T11:50:50;9.40;;;7.50;;
5890;SDS011;2971;52.420;7.080;2023-06-19T11:53:16;10.48;;;8.38;;
5890;SDS011;2971;52.420;7.080;2023-06-19T11:55:41;9.53;;;8.00;;
5890;SDS011;2971;52.420;7.080;2023-06-19T11:58:08;10.45;;;9.45;;
5890;SDS011;2971;52.420;7.080;2023-06-19T12:00:35;9.13;;;8.23;;
5890;SDS011;2971;52.420;7.080;2023-06-19T12:03:01;10.10;;;9.05;;
5890;SDS011;2971;52.420;7.080;2023-06-19T12:05:27;9.55;;;8.65;;
5890;SDS011;2971;52.420;7.080;2023-06-19T12:07:53;9.02;;;7.93;;
5890;SDS011;2971;52.420;7.080;2023-06-19T12:10:18;10.55;;;9.45;;
5890;SDS011;2971;52.420;7.080;2023-06-19T12:12:43;11.27;;;9.75;;
5890;SDS011;2971;52.420;7.080;2023-06-19T12:15:09;10.52;;;9.48;;
5890;SDS011;2971;52.420;7.080;2023-06-19T12:17:34;12.10;;;9.95;;
5890;SDS011;2971;52.420;7.080;2023-06-19T12:20:00;10.20;;;8.90;;
5890;SDS011;2971;52.420;7.080;2023-06-19T12:22:26;11.23;;;9.30;;
5890;SDS011;2971;52.420;7.080;2023-06-19T12:24:52;10.55;;;9.30;;
5890;SDS011;2971;52.420;7.080;2023-06-19T12:27:18;9.02;;;8.13;;
5890;SDS011;2971;52.420;7.080;2023-06-19T12:29:43;11.70;;;8.77;;
5890;SDS011;2971;52.420;7.080;2023-06-19T12:32:09;10.35;;;9.35;;
5890;SDS011;2971;52.420;7.080;2023-06-19T12:34:34;9.45;;;8.55;;
5890;SDS011;2971;52.420;7.080;2023-06-19T12:37:00;8.52;;;7.60;;
5890;SDS011;2971;52.420;7.080;2023-06-19T12:39:25;11.07;;;8.38;;
5890;SDS011;2971;52.420;7.080;2023-06-19T12:41:51;9.75;;;8.52;;
5890;SDS011;2971;52.420;7.080;2023-06-19T12:44:17;9.70;;;8.55;;
5890;SDS011;2971;52.420;7.080;2023-06-19T12:46:42;10.93;;;8.57;;
5890;SDS011;2971;52.420;7.080;2023-06-19T12:49:07;10.88;;;9.57;;
5890;SDS011;2971;52.420;7.080;2023-06-19T12:51:33;9.30;;;8.40;;
5890;SDS011;2971;52.420;7.080;2023-06-19T12:53:59;10.32;;;8.77;;
5890;SDS011;2971;52.420;7.080;2023-06-19T12:56:24;9.15;;;8.20;;
5890;SDS011;2971;52.420;7.080;2023-06-19T12:58:50;8.43;;;7.63;;
5890;SDS011;2971;52.420;7.080;2023-06-19T13:01:15;8.45;;;7.68;;
5890;SDS011;2971;52.420;7.080;2023-06-19T13:03:42;9.50;;;8.55;;
5890;SDS011;2971;52.420;7.080;2023-06-19T13:06:07;11.27;;;8.43;;
5890;SDS011;2971;52.420;7.080;2023-06-19T13:08:32;8.55;;;7.75;;
5890;SDS011;2971;52.420;7.080;2023-06-19T13:10:58;9.57;;;8.57;;
5890;SDS011;2971;52.420;7.080;2023-06-19T13:13:23;9.60;;;8.70;;
5890;SDS011;2971;52.420;7.080;2023-06-19T13:15:48;9.40;;;7.97;;
5890;SDS011;2971;52.420;7.080;2023-06-19T13:18:14;8.77;;;7.85;;
5890;SDS011;2971;52.420;7.080;2023-06-19T13:20:39;9.13;;;8.32;;
5890;SDS011;2971;52.420;7.080;2023-06-19T13:23:05;9.02;;;8.13;;
5890;SDS011;2971;52.420;7.080;2023-06-19T13:25:31;9.98;;;8.20;;
5890;SDS011;2971;52.420;7.080;2023-06-19T13:27:57;8.88;;;7.97;;
5890;SDS011;2971;52.420;7.080;2023-06-19T13:30:23;9.57;;;8.68;;
5890;SDS011;2971;52.420;7.080;2023-06-19T13:32:48;8.35;;;7.55;;
5890;SDS011;2971;52.420;7.080;2023-06-19T13:35:14;11.32;;;8.38;;
5890;SDS011;2971;52.420;7.080;2023-06-19T13:37:39;9.25;;;8.35;;
5890;SDS011;2971;52.420;7.080;2023-06-19T13:40:05;9.70;;;8.70;;
5890;SDS011;2971;52.420;7.080;2023-06-19T13:42:32;9.40;;;8.50;;
5890;SDS011;2971;52.420;7.080;2023-06-19T13:44:58;9.20;;;8.20;;
5890;SDS011;2971;52.420;7.080;2023-06-19T13:47:23;10.18;;;9.10;;
5890;SDS011;2971;52.420;7.080;2023-06-19T13:49:50;9.88;;;9.07;;
5890;SDS011;2971;52.420;7.080;2023-06-19T13:52:16;12.05;;;9.10;;
5890;SDS011;2971;52.420;7.080;2023-06-19T13:54:41;9.45;;;8.65;;
5890;SDS011;2971;52.420;7.080;2023-06-19T13:57:07;9.20;;;8.30;;
5890;SDS011;2971;52.420;7.080;2023-06-19T13:59:32;9.65;;;8.82;;
5890;SDS011;2971;52.420;7.080;2023-06-19T14:01:58;9.57;;;8.68;;
5890;SDS011;2971;52.420;7.080;2023-06-19T14:04:23;9.73;;;8.88;;
5890;SDS011;2971;52.420;7.080;2023-06-19T14:06:49;9.02;;;8.23;;
5890;SDS011;2971;52.420;7.080;2023-06-19T14:09:14;10.10;;;9.20;;
5890;SDS011;2971;52.420;7.080;2023-06-19T14:11:39;11.23;;;10.23;;
5890;SDS011;2971;52.420;7.080;2023-06-19T14:14:05;11.70;;;10.15;;
5890;SDS011;2971;52.420;7.080;2023-06-19T14:16:30;10.30;;;9.30;;
5890;SDS011;2971;52.420;7.080;2023-06-19T14:18:56;9.40;;;8.57;;
5890;SDS011;2971;52.420;7.080;2023-06-19T14:21:21;12.43;;;8.85;;
5890;SDS011;2971;52.420;7.080;2023-06-19T14:23:48;10.07;;;9.20;;
5890;SDS011;2971;52.420;7.080;2023-06-19T14:26:13;9.95;;;8.55;;
5890;SDS011;2971;52.420;7.080;2023-06-19T14:28:39;10.20;;;9.20;;
5890;SDS011;2971;52.420;7.080;2023-06-19T14:31:05;10.15;;;9.15;;
5890;SDS011;2971;52.420;7.080;2023-06-19T14:33:30;10.90;;;9.77;;
5890;SDS011;2971;52.420;7.080;2023-06-19T14:35:58;10.35;;;9.35;;
5890;SDS011;2971;52.420;7.080;2023-06-19T14:38:24;10.75;;;9.50;;
5890;SDS011;2971;52.420;7.080;2023-06-19T14:40:52;11.32;;;9.82;;
5890;SDS011;2971;52.420;7.080;2023-06-19T14:43:18;12.52;;;9.40;;
5890;SDS011;2971;52.420;7.080;2023-06-19T14:45:44;11.27;;;10.02;;
5890;SDS011;2971;52.420;7.080;2023-06-19T14:48:09;10.75;;;9.85;;
5890;SDS011;2971;52.420;7.080;2023-06-19T14:50:35;10.55;;;9.55;;
5890;SDS011;2971;52.420;7.080;2023-06-19T14:53:00;10.68;;;9.68;;
5890;SDS011;2971;52.420;7.080;2023-06-19T14:55:26;9.65;;;8.77;;
5890;SDS011;2971;52.420;7.080;2023-06-19T14:57:51;10.43;;;9.48;;
5890;SDS011;2971;52.420;7.080;2023-06-19T15:00:16;10.88;;;9.07;;
5890;SDS011;2971;52.420;7.080;2023-06-19T15:02:42;9.25;;;7.80;;
5890;SDS011;2971;52.420;7.080;2023-06-19T15:05:08;8.35;;;7.55;;
5890;SDS011;2971;52.420;7.080;2023-06-19T15:07:33;9.85;;;8.95;;